sensor_id;sensor_type;location;lat;lon;timestamp;P1;durP1;ratioP1;P2;durP2;ratioP2
33954;SDS011;20233;50.804;7.126;2023-11-21T00:00:13;5.55;;;2.03;;
33954;SDS011;20233;50.804;7.126;2023-11-21T00:02:40;6.25;;;2.03;;
33954;SDS011;20233;50.804;7.126;2023-11-21T00:05:07;3.60;;;1.98;;
33954;SDS011;20233;50.804;7.126;2023-11-21T00:07:39;4.93;;;2.38;;
33954;SDS011;20233;50.804;7.126;2023-11-21T00:10:05;10.50;;;2.28;;
33954;SDS011;20233;50.804;7.126;2023-11-21T00:12:33;6.35;;;2.47;;
33954;SDS011;20233;50.804;7.126;2023-11-21T00:14:59;8.63;;;3.95;;
33954;SDS011;20233;50.804;7.126;2023-11-21T00:17:25;7.13;;;2.97;;
33954;SDS011;20233;50.804;7.126;2023-11-21T00:19:51;6.78;;;3.10;;
33954;SDS011;20233;50.804;7.126;2023-11-21T00:22:20;5.32;;;2.42;;
33954;SDS011;20233;50.804;7.126;2023-11-21T00:24:45;9.40;;;3.08;;
33954;SDS011;20233;50.804;7.126;2023-11-21T00:27:11;6.88;;;2.90;;
33954;SDS011;20233;50.804;7.126;2023-11-21T00:29:39;6.93;;;3.15;;
33954;SDS011;20233;50.804;7.126;2023-11-21T00:32:05;10.13;;;3.92;;
33954;SDS011;20233;50.804;7.126;2023-11-21T00:34:32;8.27;;;3.80;;
33954;SDS011;20233;50.804;7.126;2023-11-21T00:36:57;12.20;;;5.60;;
33954;SDS011;20233;50.804;7.126;2023-11-21T00:39:23;9.82;;;4.88;;
33954;SDS011;20233;50.804;7.126;2023-11-21T00:41:49;8.02;;;4.70;;
33954;SDS011;20233;50.804;7.126;2023-11-21T00:44:15;9.77;;;4.80;;
33954;SDS011;20233;50.804;7.126;2023-11-21T00:46:41;9.27;;;5.10;;
33954;SDS011;20233;50.804;7.126;2023-11-21T00:49:06;11.07;;;5.00;;
33954;SDS011;20233;50.804;7.126;2023-11-21T00:51:32;12.68;;;4.65;;
33954;SDS011;20233;50.804;7.126;2023-11-21T00:53:58;9.45;;;4.75;;
33954;SDS011;20233;50.804;7.126;2023-11-21T00:56:24;10.82;;;4.57;;
33954;SDS011;20233;50.804;7.126;2023-11-21T00:58:49;11.27;;;5.88;;
33954;SDS011;20233;50.804;7.126;2023-11-21T01:01:17;9.93;;;5.50;;
33954;SDS011;20233;50.804;7.126;2023-11-21T01:03:47;12.30;;;7.03;;
33954;SDS011;20233;50.804;7.126;2023-11-21T01:06:13;11.48;;;6.13;;
33954;SDS011;20233;50.804;7.126;2023-11-21T01:08:39;12.02;;;6.80;;
33954;SDS011;20233;50.804;7.126;2023-11-21T01:11:05;10.65;;;6.85;;
33954;SDS011;20233;50.804;7.126;2023-11-21T01:13:33;14.88;;;7.35;;
33954;SDS011;20233;50.804;7.126;2023-11-21T01:15:59;15.07;;;8.10;;
33954;SDS011;20233;50.804;7.126;2023-11-21T01:18:24;13.23;;;6.88;;
33954;SDS011;20233;50.804;7.126;2023-11-21T01:20:54;11.93;;;7.07;;
33954;SDS011;20233;50.804;7.126;2023-11-21T01:23:19;17.20;;;8.73;;
33954;SDS011;20233;50.804;7.126;2023-11-21T01:25:45;16.60;;;8.93;;
33954;SDS011;20233;50.804;7.126;2023-11-21T01:28:10;17.70;;;8.55;;
33954;SDS011;20233;50.804;7.126;2023-11-21T01:30:37;14.07;;;7.78;;
33954;SDS011;20233;50.804;7.126;2023-11-21T01:33:02;16.27;;;9.82;;
33954;SDS011;20233;50.804;7.126;2023-11-21T01:35:28;17.75;;;8.60;;
33954;SDS011;20233;50.804;7.126;2023-11-21T01:37:53;16.25;;;7.40;;
33954;SDS011;20233;50.804;7.126;2023-11-21T01:40:19;13.30;;;7.47;;
33954;SDS011;20233;50.804;7.126;2023-11-21T01:42:46;12.98;;;7.40;;
33954;SDS011;20233;50.804;7.126;2023-11-21T01:45:13;13.55;;;7.22;;
33954;SDS011;20233;50.804;7.126;2023-11-21T01:47:39;16.70;;;7.80;;
33954;SDS011;20233;50.804;7.126;2023-11-21T01:50:09;13.50;;;8.38;;
33954;SDS011;20233;50.804;7.126;2023-11-21T01:52:40;15.55;;;7.55;;
33954;SDS011;20233;50.804;7.126;2023-11-21T01:55:07;13.35;;;7.50;;
33954;SDS011;20233;50.804;7.126;2023-11-21T01:57:33;13.52;;;8.00;;
33954;SDS011;20233;50.804;7.126;2023-11-21T02:00:00;13.05;;;7.63;;
33954;SDS011;20233;50.804;7.126;2023-11-21T02:02:40;15.40;;;9.05;;
33954;SDS011;20233;50.804;7.126;2023-11-21T02:05:15;16.15;;;7.97;;
33954;SDS011;20233;50.804;7.126;2023-11-21T02:07:46;16.33;;;8.43;;
33954;SDS011;20233;50.804;7.126;2023-11-21T02:10:17;16.70;;;8.38;;
33954;SDS011;20233;50.804;7.126;2023-11-21T02:12:47;15.20;;;8.07;;
33954;SDS011;20233;50.804;7.126;2023-11-21T02:15:16;14.43;;;9.02;;
33954;SDS011;20233;50.804;7.126;2023-11-21T02:17:46;20.45;;;9.57;;
33954;SDS011;20233;50.804;7.126;2023-11-21T02:20:12;15.80;;;8.57;;
33954;SDS011;20233;50.804;7.126;2023-11-21T02:22:43;20.37;;;10.33;;
33954;SDS011;20233;50.804;7.126;2023-11-21T02:25:24;15.60;;;8.32;;
33954;SDS011;20233;50.804;7.126;2023-11-21T02:27:57;16.50;;;7.95;;
33954;SDS011;20233;50.804;7.126;2023-11-21T02:30:24;14.93;;;8.50;;
33954;SDS011;20233;50.804;7.126;2023-11-21T02:32:51;18.02;;;9.57;;
33954;SDS011;20233;50.804;7.126;2023-11-21T02:35:24;19.52;;;9.50;;
33954;SDS011;20233;50.804;7.126;2023-11-21T02:37:52;15.57;;;8.52;;
33954;SDS011;20233;50.804;7.126;2023-11-21T02:40:18;20.25;;;9.30;;
33954;SDS011;20233;50.804;7.126;2023-11-21T02:42:51;16.90;;;8.88;;
33954;SDS011;20233;50.804;7.126;2023-11-21T02:45:18;15.68;;;9.23;;
33954;SDS011;20233;50.804;7.126;2023-11-21T02:47:45;17.42;;;9.25;;
33954;SDS011;20233;50.804;7.126;2023-11-21T02:50:11;15.50;;;9.23;;
33954;SDS011;20233;50.804;7.126;2023-11-21T02:52:37;17.80;;;9.30;;
33954;SDS011;20233;50.804;7.126;2023-11-21T02:55:03;20.20;;;10.85;;
33954;SDS011;20233;50.804;7.126;2023-11-21T02:57:29;20.42;;;10.75;;
33954;SDS011;20233;50.804;7.126;2023-11-21T02:59:55;22.83;;;10.18;;
33954;SDS011;20233;50.804;7.126;2023-11-21T03:02:21;18.00;;;10.20;;
33954;SDS011;20233;50.804;7.126;2023-11-21T03:04:47;23.15;;;11.45;;
33954;SDS011;20233;50.804;7.126;2023-11-21T03:07:14;20.15;;;9.48;;
33954;SDS011;20233;50.804;7.126;2023-11-21T03:09:40;16.95;;;8.57;;
33954;SDS011;20233;50.804;7.126;2023-11-21T03:12:05;17.00;;;9.27;;
33954;SDS011;20233;50.804;7.126;2023-11-21T03:14:31;22.17;;;9.45;;
33954;SDS011;20233;50.804;7.126;2023-11-21T03:16:56;19.95;;;9.27;;
33954;SDS011;20233;50.804;7.126;2023-11-21T03:19:22;22.85;;;9.93;;
33954;SDS011;20233;50.804;7.126;2023-11-21T03:21:48;18.95;;;10.35;;
33954;SDS011;20233;50.804;7.126;2023-11-21T03:24:14;18.75;;;9.63;;
33954;SDS011;20233;50.804;7.126;2023-11-21T03:26:44;19.13;;;9.63;;
33954;SDS011;20233;50.804;7.126;2023-11-21T03:29:11;16.58;;;9.35;;
33954;SDS011;20233;50.804;7.126;2023-11-21T03:31:37;22.30;;;9.77;;
33954;SDS011;20233;50.804;7.126;2023-11-21T03:34:02;20.65;;;10.48;;
33954;SDS011;20233;50.804;7.126;2023-11-21T03:36:28;22.88;;;9.60;;
33954;SDS011;20233;50.804;7.126;2023-11-21T03:38:54;21.83;;;11.50;;
33954;SDS011;20233;50.804;7.126;2023-11-21T03:41:20;20.02;;;9.85;;
33954;SDS011;20233;50.804;7.126;2023-11-21T03:43:46;17.58;;;10.32;;
33954;SDS011;20233;50.804;7.126;2023-11-21T03:46:11;18.27;;;9.77;;
33954;SDS011;20233;50.804;7.126;2023-11-21T03:48:37;17.73;;;9.55;;
33954;SDS011;20233;50.804;7.126;2023-11-21T03:51:03;22.88;;;9.55;;
33954;SDS011;20233;50.804;7.126;2023-11-21T03:53:29;19.85;;;9.27;;
33954;SDS011;20233;50.804;7.126;2023-11-21T03:55:54;18.48;;;10.63;;
33954;SDS011;20233;50.804;7.126;2023-11-21T03:58:21;19.60;;;10.52;;
33954;SDS011;20233;50.804;7.126;2023-11-21T04:00:47;19.58;;;9.57;;
33954;SDS011;20233;50.804;7.126;2023-11-21T04:03:15;16.55;;;9.43;;
33954;SDS011;20233;50.804;7.126;2023-11-21T04:05:41;19.15;;;10.35;;
33954;SDS011;20233;50.804;7.126;2023-11-21T04:08:06;19.33;;;9.35;;
33954;SDS011;20233;50.804;7.126;2023-11-21T04:10:32;21.65;;;9.90;;
33954;SDS011;20233;50.804;7.126;2023-11-21T04:12:58;14.90;;;9.32;;
33954;SDS011;20233;50.804;7.126;2023-11-21T04:15:25;19.73;;;9.82;;
33954;SDS011;20233;50.804;7.126;2023-11-21T04:17:51;20.92;;;10.27;;
33954;SDS011;20233;50.804;7.126;2023-11-21T04:20:17;21.80;;;11.10;;
33954;SDS011;20233;50.804;7.126;2023-11-21T04:22:43;18.92;;;9.70;;
33954;SDS011;20233;50.804;7.126;2023-11-21T04:25:13;16.88;;;9.80;;
33954;SDS011;20233;50.804;7.126;2023-11-21T04:27:40;21.50;;;10.88;;
33954;SDS011;20233;50.804;7.126;2023-11-21T04:30:08;21.80;;;10.65;;
33954;SDS011;20233;50.804;7.126;2023-11-21T04:32:35;22.70;;;12.25;;
33954;SDS011;20233;50.804;7.126;2023-11-21T04:35:01;23.35;;;13.15;;
33954;SDS011;20233;50.804;7.126;2023-11-21T04:37:27;22.77;;;11.63;;
33954;SDS011;20233;50.804;7.126;2023-11-21T04:39:52;24.20;;;12.20;;
33954;SDS011;20233;50.804;7.126;2023-11-21T04:42:18;27.25;;;12.68;;
33954;SDS011;20233;50.804;7.126;2023-11-21T04:44:43;20.88;;;11.45;;
33954;SDS011;20233;50.804;7.126;2023-11-21T04:47:09;22.67;;;12.05;;
33954;SDS011;20233;50.804;7.126;2023-11-21T04:49:35;20.02;;;12.07;;
33954;SDS011;20233;50.804;7.126;2023-11-21T04:52:00;24.45;;;11.82;;
33954;SDS011;20233;50.804;7.126;2023-11-21T04:54:27;22.08;;;11.60;;
33954;SDS011;20233;50.804;7.126;2023-11-21T04:56:52;21.80;;;11.60;;
33954;SDS011;20233;50.804;7.126;2023-11-21T04:59:18;20.13;;;10.57;;
33954;SDS011;20233;50.804;7.126;2023-11-21T05:01:43;21.73;;;12.02;;
33954;SDS011;20233;50.804;7.126;2023-11-21T05:04:09;20.83;;;11.60;;
33954;SDS011;20233;50.804;7.126;2023-11-21T05:06:34;22.08;;;11.80;;
33954;SDS011;20233;50.804;7.126;2023-11-21T05:09:00;21.90;;;11.13;;
33954;SDS011;20233;50.804;7.126;2023-11-21T05:11:26;28.40;;;13.00;;
33954;SDS011;20233;50.804;7.126;2023-11-21T05:13:52;27.98;;;14.18;;
33954;SDS011;20233;50.804;7.126;2023-11-21T05:16:19;23.83;;;12.43;;
33954;SDS011;20233;50.804;7.126;2023-11-21T05:18:45;20.90;;;11.90;;
33954;SDS011;20233;50.804;7.126;2023-11-21T05:21:10;22.35;;;11.35;;
33954;SDS011;20233;50.804;7.126;2023-11-21T05:23:36;25.63;;;11.75;;
33954;SDS011;20233;50.804;7.126;2023-11-21T05:26:02;21.98;;;11.23;;
33954;SDS011;20233;50.804;7.126;2023-11-21T05:28:28;28.90;;;13.15;;
33954;SDS011;20233;50.804;7.126;2023-11-21T05:30:53;26.95;;;14.10;;
33954;SDS011;20233;50.804;7.126;2023-11-21T05:33:19;27.55;;;13.88;;
33954;SDS011;20233;50.804;7.126;2023-11-21T05:35:45;25.40;;;14.20;;
33954;SDS011;20233;50.804;7.126;2023-11-21T05:38:13;23.02;;;13.68;;
33954;SDS011;20233;50.804;7.126;2023-11-21T05:40:38;29.73;;;12.48;;
33954;SDS011;20233;50.804;7.126;2023-11-21T05:43:04;25.85;;;13.00;;
33954;SDS011;20233;50.804;7.126;2023-11-21T05:45:30;26.52;;;13.63;;
33954;SDS011;20233;50.804;7.126;2023-11-21T05:47:56;23.40;;;13.27;;
33954;SDS011;20233;50.804;7.126;2023-11-21T05:50:22;21.50;;;12.88;;
33954;SDS011;20233;50.804;7.126;2023-11-21T05:52:48;25.20;;;13.20;;
33954;SDS011;20233;50.804;7.126;2023-11-21T05:55:14;28.90;;;12.68;;
33954;SDS011;20233;50.804;7.126;2023-11-21T05:57:41;27.00;;;13.25;;
33954;SDS011;20233;50.804;7.126;2023-11-21T06:00:11;25.75;;;13.60;;
33954;SDS011;20233;50.804;7.126;2023-11-21T06:02:45;29.33;;;15.63;;
33954;SDS011;20233;50.804;7.126;2023-11-21T06:05:11;27.98;;;15.18;;
33954;SDS011;20233;50.804;7.126;2023-11-21T06:07:37;27.02;;;13.77;;
33954;SDS011;20233;50.804;7.126;2023-11-21T06:10:05;32.90;;;15.85;;
33954;SDS011;20233;50.804;7.126;2023-11-21T06:12:38;29.13;;;16.13;;
33954;SDS011;20233;50.804;7.126;2023-11-21T06:15:05;32.70;;;16.20;;
33954;SDS011;20233;50.804;7.126;2023-11-21T06:17:35;29.90;;;14.98;;
33954;SDS011;20233;50.804;7.126;2023-11-21T06:20:05;35.97;;;17.52;;
33954;SDS011;20233;50.804;7.126;2023-11-21T06:22:42;33.08;;;15.70;;
33954;SDS011;20233;50.804;7.126;2023-11-21T06:25:13;40.20;;;16.67;;
33954;SDS011;20233;50.804;7.126;2023-11-21T06:27:41;31.10;;;15.93;;
33954;SDS011;20233;50.804;7.126;2023-11-21T06:30:10;29.92;;;15.75;;
33954;SDS011;20233;50.804;7.126;2023-11-21T06:32:39;28.60;;;15.85;;
33954;SDS011;20233;50.804;7.126;2023-11-21T06:35:06;36.13;;;17.45;;
33954;SDS011;20233;50.804;7.126;2023-11-21T06:37:35;35.70;;;17.92;;
33954;SDS011;20233;50.804;7.126;2023-11-21T06:40:01;42.40;;;18.10;;
33954;SDS011;20233;50.804;7.126;2023-11-21T06:42:30;32.47;;;16.88;;
33954;SDS011;20233;50.804;7.126;2023-11-21T06:44:57;36.17;;;16.63;;
33954;SDS011;20233;50.804;7.126;2023-11-21T06:47:25;35.97;;;16.73;;
33954;SDS011;20233;50.804;7.126;2023-11-21T06:49:55;34.03;;;16.45;;
33954;SDS011;20233;50.804;7.126;2023-11-21T06:52:24;34.80;;;16.15;;
33954;SDS011;20233;50.804;7.126;2023-11-21T06:54:51;34.97;;;16.58;;
33954;SDS011;20233;50.804;7.126;2023-11-21T06:57:20;38.72;;;16.05;;
33954;SDS011;20233;50.804;7.126;2023-11-21T06:59:49;38.20;;;17.10;;
33954;SDS011;20233;50.804;7.126;2023-11-21T07:02:19;34.70;;;16.10;;
33954;SDS011;20233;50.804;7.126;2023-11-21T07:04:52;39.70;;;17.35;;
33954;SDS011;20233;50.804;7.126;2023-11-21T07:07:21;34.30;;;17.83;;
33954;SDS011;20233;50.804;7.126;2023-11-21T07:09:49;36.30;;;17.90;;
33954;SDS011;20233;50.804;7.126;2023-11-21T07:12:17;34.15;;;17.73;;
33954;SDS011;20233;50.804;7.126;2023-11-21T07:14:44;41.97;;;19.30;;
33954;SDS011;20233;50.804;7.126;2023-11-21T07:17:12;37.40;;;16.60;;
33954;SDS011;20233;50.804;7.126;2023-11-21T07:19:45;37.47;;;17.23;;
33954;SDS011;20233;50.804;7.126;2023-11-21T07:22:14;36.10;;;16.92;;
33954;SDS011;20233;50.804;7.126;2023-11-21T07:24:49;44.80;;;18.17;;
33954;SDS011;20233;50.804;7.126;2023-11-21T07:27:18;44.08;;;18.63;;
33954;SDS011;20233;50.804;7.126;2023-11-21T07:29:45;35.95;;;18.23;;
33954;SDS011;20233;50.804;7.126;2023-11-21T07:32:14;43.85;;;18.20;;
33954;SDS011;20233;50.804;7.126;2023-11-21T07:34:44;43.13;;;17.38;;
33954;SDS011;20233;50.804;7.126;2023-11-21T07:37:11;47.40;;;18.98;;
33954;SDS011;20233;50.804;7.126;2023-11-21T07:39:40;38.25;;;17.85;;
33954;SDS011;20233;50.804;7.126;2023-11-21T07:42:07;42.53;;;18.77;;
33954;SDS011;20233;50.804;7.126;2023-11-21T07:44:34;45.13;;;18.83;;
33954;SDS011;20233;50.804;7.126;2023-11-21T07:47:00;42.30;;;18.05;;
33954;SDS011;20233;50.804;7.126;2023-11-21T07:49:28;44.05;;;18.20;;
33954;SDS011;20233;50.804;7.126;2023-11-21T07:51:57;41.45;;;19.20;;
33954;SDS011;20233;50.804;7.126;2023-11-21T07:54:25;42.13;;;18.10;;
33954;SDS011;20233;50.804;7.126;2023-11-21T07:56:53;43.30;;;18.10;;
33954;SDS011;20233;50.804;7.126;2023-11-21T07:59:21;46.05;;;18.40;;
33954;SDS011;20233;50.804;7.126;2023-11-21T08:01:52;43.50;;;19.33;;
33954;SDS011;20233;50.804;7.126;2023-11-21T08:04:19;40.17;;;17.67;;
33954;SDS011;20233;50.804;7.126;2023-11-21T08:06:46;42.95;;;18.70;;
33954;SDS011;20233;50.804;7.126;2023-11-21T08:09:17;37.83;;;18.77;;
33954;SDS011;20233;50.804;7.126;2023-11-21T08:11:43;42.65;;;18.65;;
33954;SDS011;20233;50.804;7.126;2023-11-21T08:14:13;47.05;;;19.15;;
33954;SDS011;20233;50.804;7.126;2023-11-21T08:16:42;45.63;;;18.50;;
33954;SDS011;20233;50.804;7.126;2023-11-21T08:19:10;40.38;;;17.98;;
33954;SDS011;20233;50.804;7.126;2023-11-21T08:21:36;42.25;;;18.23;;
33954;SDS011;20233;50.804;7.126;2023-11-21T08:24:05;40.47;;;18.05;;
33954;SDS011;20233;50.804;7.126;2023-11-21T08:26:36;40.70;;;19.13;;
33954;SDS011;20233;50.804;7.126;2023-11-21T08:29:03;40.47;;;18.65;;
33954;SDS011;20233;50.804;7.126;2023-11-21T08:31:33;44.35;;;18.73;;
33954;SDS011;20233;50.804;7.126;2023-11-21T08:34:02;43.20;;;18.30;;
33954;SDS011;20233;50.804;7.126;2023-11-21T08:36:29;37.28;;;19.33;;
33954;SDS011;20233;50.804;7.126;2023-11-21T08:38:57;42.17;;;17.88;;
33954;SDS011;20233;50.804;7.126;2023-11-21T08:41:29;39.50;;;17.80;;
33954;SDS011;20233;50.804;7.126;2023-11-21T08:43:56;41.58;;;18.67;;
33954;SDS011;20233;50.804;7.126;2023-11-21T08:46:23;40.55;;;18.95;;
33954;SDS011;20233;50.804;7.126;2023-11-21T08:48:52;36.13;;;17.40;;
33954;SDS011;20233;50.804;7.126;2023-11-21T08:51:19;34.85;;;17.52;;
33954;SDS011;20233;50.804;7.126;2023-11-21T08:53:45;38.58;;;18.00;;
33954;SDS011;20233;50.804;7.126;2023-11-21T08:56:13;36.75;;;17.55;;
33954;SDS011;20233;50.804;7.126;2023-11-21T08:58:41;32.88;;;16.80;;
33954;SDS011;20233;50.804;7.126;2023-11-21T09:01:08;33.78;;;16.63;;
33954;SDS011;20233;50.804;7.126;2023-11-21T09:03:34;33.53;;;16.92;;
33954;SDS011;20233;50.804;7.126;2023-11-21T09:06:00;38.63;;;17.98;;
33954;SDS011;20233;50.804;7.126;2023-11-21T09:08:29;40.28;;;17.98;;
33954;SDS011;20233;50.804;7.126;2023-11-21T09:10:56;34.17;;;17.42;;
33954;SDS011;20233;50.804;7.126;2023-11-21T09:13:24;36.05;;;17.90;;
33954;SDS011;20233;50.804;7.126;2023-11-21T09:15:51;34.03;;;16.50;;
33954;SDS011;20233;50.804;7.126;2023-11-21T09:18:17;34.58;;;18.70;;
33954;SDS011;20233;50.804;7.126;2023-11-21T09:20:44;36.20;;;17.52;;
33954;SDS011;20233;50.804;7.126;2023-11-21T09:23:11;38.88;;;17.42;;
33954;SDS011;20233;50.804;7.126;2023-11-21T09:25:42;32.60;;;15.93;;
33954;SDS011;20233;50.804;7.126;2023-11-21T09:28:11;39.53;;;18.02;;
33954;SDS011;20233;50.804;7.126;2023-11-21T09:30:39;33.08;;;17.67;;
33954;SDS011;20233;50.804;7.126;2023-11-21T09:33:06;34.15;;;17.83;;
33954;SDS011;20233;50.804;7.126;2023-11-21T09:35:39;38.30;;;17.80;;
33954;SDS011;20233;50.804;7.126;2023-11-21T09:38:06;36.78;;;17.20;;
33954;SDS011;20233;50.804;7.126;2023-11-21T09:40:36;34.90;;;16.38;;
33954;SDS011;20233;50.804;7.126;2023-11-21T09:43:12;35.92;;;18.48;;
33954;SDS011;20233;50.804;7.126;2023-11-21T09:45:47;44.53;;;17.40;;
33954;SDS011;20233;50.804;7.126;2023-11-21T09:48:21;35.90;;;17.13;;
33954;SDS011;20233;50.804;7.126;2023-11-21T09:50:54;38.45;;;18.30;;
33954;SDS011;20233;50.804;7.126;2023-11-21T09:53:22;35.83;;;17.33;;
33954;SDS011;20233;50.804;7.126;2023-11-21T09:58:20;38.50;;;17.60;;
33954;SDS011;20233;50.804;7.126;2023-11-21T10:00:48;40.95;;;19.92;;
33954;SDS011;20233;50.804;7.126;2023-11-21T10:03:22;45.78;;;19.80;;
33954;SDS011;20233;50.804;7.126;2023-11-21T10:05:50;39.78;;;19.08;;
33954;SDS011;20233;50.804;7.126;2023-11-21T10:08:20;49.08;;;21.35;;
33954;SDS011;20233;50.804;7.126;2023-11-21T10:10:52;46.08;;;21.75;;
33954;SDS011;20233;50.804;7.126;2023-11-21T10:13:21;47.03;;;21.60;;
33954;SDS011;20233;50.804;7.126;2023-11-21T10:15:51;45.78;;;22.23;;
33954;SDS011;20233;50.804;7.126;2023-11-21T10:18:18;46.80;;;23.33;;
33954;SDS011;20233;50.804;7.126;2023-11-21T10:20:45;48.70;;;23.35;;
33954;SDS011;20233;50.804;7.126;2023-11-21T10:23:18;47.08;;;23.77;;
33954;SDS011;20233;50.804;7.126;2023-11-21T10:25:47;47.17;;;23.50;;
33954;SDS011;20233;50.804;7.126;2023-11-21T10:28:16;47.55;;;22.88;;
33954;SDS011;20233;50.804;7.126;2023-11-21T10:30:43;51.83;;;23.10;;
33954;SDS011;20233;50.804;7.126;2023-11-21T10:33:11;50.10;;;22.70;;
33954;SDS011;20233;50.804;7.126;2023-11-21T10:38:07;45.17;;;21.95;;
33954;SDS011;20233;50.804;7.126;2023-11-21T10:40:38;48.03;;;21.73;;
33954;SDS011;20233;50.804;7.126;2023-11-21T10:43:08;45.13;;;22.92;;
33954;SDS011;20233;50.804;7.126;2023-11-21T10:45:36;46.95;;;22.35;;
33954;SDS011;20233;50.804;7.126;2023-11-21T10:48:12;50.75;;;21.15;;
33954;SDS011;20233;50.804;7.126;2023-11-21T10:50:41;49.03;;;22.35;;
33954;SDS011;20233;50.804;7.126;2023-11-21T10:53:08;49.05;;;23.10;;
33954;SDS011;20233;50.804;7.126;2023-11-21T10:55:37;49.17;;;22.38;;
33954;SDS011;20233;50.804;7.126;2023-11-21T10:58:04;49.10;;;23.10;;
33954;SDS011;20233;50.804;7.126;2023-11-21T11:00:32;47.83;;;21.67;;
33954;SDS011;20233;50.804;7.126;2023-11-21T11:02:59;47.33;;;21.67;;
33954;SDS011;20233;50.804;7.126;2023-11-21T11:05:28;45.83;;;22.08;;
33954;SDS011;20233;50.804;7.126;2023-11-21T11:08:04;46.17;;;21.33;;
33954;SDS011;20233;50.804;7.126;2023-11-21T11:10:38;51.00;;;21.70;;
33954;SDS011;20233;50.804;7.126;2023-11-21T11:13:04;44.20;;;22.25;;
33954;SDS011;20233;50.804;7.126;2023-11-21T11:15:34;43.78;;;20.50;;
33954;SDS011;20233;50.804;7.126;2023-11-21T11:18:01;39.78;;;19.50;;
33954;SDS011;20233;50.804;7.126;2023-11-21T11:20:32;41.80;;;19.67;;
33954;SDS011;20233;50.804;7.126;2023-11-21T11:25:53;44.28;;;19.83;;
33954;SDS011;20233;50.804;7.126;2023-11-21T11:37:01;42.47;;;20.40;;
33954;SDS011;20233;50.804;7.126;2023-11-21T11:39:39;40.45;;;19.40;;
33954;SDS011;20233;50.804;7.126;2023-11-21T11:42:07;42.25;;;19.52;;
33954;SDS011;20233;50.804;7.126;2023-11-21T11:47:31;40.53;;;19.58;;
33954;SDS011;20233;50.804;7.126;2023-11-21T11:50:09;40.95;;;19.40;;
33954;SDS011;20233;50.804;7.126;2023-11-21T11:52:49;40.92;;;20.00;;
33954;SDS011;20233;50.804;7.126;2023-11-21T11:55:19;38.53;;;20.35;;
33954;SDS011;20233;50.804;7.126;2023-11-21T11:57:51;41.03;;;21.95;;
33954;SDS011;20233;50.804;7.126;2023-11-21T12:02:52;41.83;;;19.85;;
33954;SDS011;20233;50.804;7.126;2023-11-21T12:05:22;41.58;;;19.90;;
33954;SDS011;20233;50.804;7.126;2023-11-21T12:07:50;50.13;;;22.52;;
33954;SDS011;20233;50.804;7.126;2023-11-21T12:10:26;45.40;;;20.63;;
33954;SDS011;20233;50.804;7.126;2023-11-21T12:12:55;44.03;;;20.77;;
33954;SDS011;20233;50.804;7.126;2023-11-21T12:15:40;48.85;;;21.20;;
33954;SDS011;20233;50.804;7.126;2023-11-21T12:18:06;50.67;;;22.50;;
33954;SDS011;20233;50.804;7.126;2023-11-21T12:20:34;41.92;;;22.15;;
33954;SDS011;20233;50.804;7.126;2023-11-21T12:23:07;43.47;;;21.48;;
33954;SDS011;20233;50.804;7.126;2023-11-21T12:25:39;40.38;;;21.65;;
33954;SDS011;20233;50.804;7.126;2023-11-21T12:28:06;41.33;;;20.17;;
33954;SDS011;20233;50.804;7.126;2023-11-21T12:30:34;45.38;;;22.38;;
33954;SDS011;20233;50.804;7.126;2023-11-21T12:33:03;45.20;;;21.25;;
33954;SDS011;20233;50.804;7.126;2023-11-21T12:35:34;49.42;;;22.38;;
33954;SDS011;20233;50.804;7.126;2023-11-21T12:38:02;49.42;;;22.83;;
33954;SDS011;20233;50.804;7.126;2023-11-21T12:40:31;46.97;;;23.67;;
33954;SDS011;20233;50.804;7.126;2023-11-21T12:42:58;51.53;;;24.40;;
33954;SDS011;20233;50.804;7.126;2023-11-21T12:45:27;52.45;;;24.80;;
33954;SDS011;20233;50.804;7.126;2023-11-21T12:47:59;49.78;;;24.27;;
33954;SDS011;20233;50.804;7.126;2023-11-21T12:50:29;58.30;;;24.50;;
33954;SDS011;20233;50.804;7.126;2023-11-21T12:52:59;49.20;;;23.98;;
33954;SDS011;20233;50.804;7.126;2023-11-21T12:55:37;49.17;;;23.67;;
33954;SDS011;20233;50.804;7.126;2023-11-21T12:58:05;52.20;;;23.77;;
33954;SDS011;20233;50.804;7.126;2023-11-21T13:00:36;55.35;;;22.85;;
33954;SDS011;20233;50.804;7.126;2023-11-21T13:03:05;49.13;;;23.63;;
33954;SDS011;20233;50.804;7.126;2023-11-21T13:05:35;53.08;;;24.27;;
33954;SDS011;20233;50.804;7.126;2023-11-21T13:08:10;54.38;;;23.52;;
33954;SDS011;20233;50.804;7.126;2023-11-21T13:10:40;58.27;;;24.93;;
33954;SDS011;20233;50.804;7.126;2023-11-21T13:13:10;51.30;;;22.73;;
33954;SDS011;20233;50.804;7.126;2023-11-21T13:15:49;50.25;;;21.50;;
33954;SDS011;20233;50.804;7.126;2023-11-21T13:18:17;52.22;;;22.48;;
33954;SDS011;20233;50.804;7.126;2023-11-21T13:20:44;45.38;;;22.38;;
33954;SDS011;20233;50.804;7.126;2023-11-21T13:23:14;44.53;;;21.20;;
33954;SDS011;20233;50.804;7.126;2023-11-21T13:25:48;50.13;;;23.52;;
33954;SDS011;20233;50.804;7.126;2023-11-21T13:28:15;42.53;;;19.65;;
33954;SDS011;20233;50.804;7.126;2023-11-21T13:30:41;39.22;;;18.95;;
33954;SDS011;20233;50.804;7.126;2023-11-21T13:33:09;44.50;;;21.17;;
33954;SDS011;20233;50.804;7.126;2023-11-21T13:35:39;46.55;;;20.45;;
33954;SDS011;20233;50.804;7.126;2023-11-21T13:38:09;41.55;;;20.08;;
33954;SDS011;20233;50.804;7.126;2023-11-21T13:40:38;41.50;;;19.02;;
33954;SDS011;20233;50.804;7.126;2023-11-21T13:43:10;43.17;;;19.17;;
33954;SDS011;20233;50.804;7.126;2023-11-21T13:45:40;41.50;;;18.73;;
33954;SDS011;20233;50.804;7.126;2023-11-21T13:48:07;42.58;;;18.02;;
33954;SDS011;20233;50.804;7.126;2023-11-21T13:50:40;36.85;;;16.63;;
33954;SDS011;20233;50.804;7.126;2023-11-21T13:53:14;38.67;;;17.95;;
33954;SDS011;20233;50.804;7.126;2023-11-21T13:55:48;39.33;;;18.10;;
33954;SDS011;20233;50.804;7.126;2023-11-21T13:58:23;41.55;;;16.60;;
33954;SDS011;20233;50.804;7.126;2023-11-21T14:01:12;41.03;;;17.52;;
33954;SDS011;20233;50.804;7.126;2023-11-21T14:04:03;37.42;;;17.40;;
33954;SDS011;20233;50.804;7.126;2023-11-21T14:06:46;42.22;;;17.60;;
33954;SDS011;20233;50.804;7.126;2023-11-21T14:09:15;37.50;;;17.25;;
33954;SDS011;20233;50.804;7.126;2023-11-21T14:11:52;34.78;;;15.73;;
33954;SDS011;20233;50.804;7.126;2023-11-21T14:14:21;38.75;;;18.42;;
33954;SDS011;20233;50.804;7.126;2023-11-21T14:16:50;41.28;;;18.75;;
33954;SDS011;20233;50.804;7.126;2023-11-21T14:19:18;38.65;;;16.85;;
33954;SDS011;20233;50.804;7.126;2023-11-21T14:21:45;44.92;;;17.52;;
33954;SDS011;20233;50.804;7.126;2023-11-21T14:24:14;35.90;;;17.85;;
33954;SDS011;20233;50.804;7.126;2023-11-21T14:26:45;38.53;;;17.25;;
33954;SDS011;20233;50.804;7.126;2023-11-21T14:29:17;37.25;;;15.82;;
33954;SDS011;20233;50.804;7.126;2023-11-21T14:31:49;40.78;;;17.52;;
33954;SDS011;20233;50.804;7.126;2023-11-21T14:34:16;39.40;;;18.05;;
33954;SDS011;20233;50.804;7.126;2023-11-21T14:36:43;38.35;;;16.83;;
33954;SDS011;20233;50.804;7.126;2023-11-21T14:39:12;40.58;;;17.50;;
33954;SDS011;20233;50.804;7.126;2023-11-21T14:41:49;37.45;;;16.42;;
33954;SDS011;20233;50.804;7.126;2023-11-21T14:44:17;47.17;;;18.77;;
33954;SDS011;20233;50.804;7.126;2023-11-21T14:46:44;41.72;;;16.52;;
33954;SDS011;20233;50.804;7.126;2023-11-21T14:49:12;41.25;;;17.27;;
33954;SDS011;20233;50.804;7.126;2023-11-21T14:51:46;41.10;;;17.92;;
33954;SDS011;20233;50.804;7.126;2023-11-21T14:54:33;40.42;;;19.98;;